createdAt,value
2022-09-10T00:00:38.533Z,67.60
2022-09-10T00:03:04.985Z,67.10
2022-09-10T00:05:31.419Z,68.20
2022-09-10T00:07:57.848Z,68.10
2022-09-10T00:10:24.304Z,68.50
2022-09-10T00:12:50.735Z,67.90
2022-09-10T00:15:17.152Z,67.20
2022-09-10T00:17:43.773Z,67.40
2022-09-10T00:20:10.190Z,67.30
2022-09-10T00:22:36.638Z,67.30
2022-09-10T00:25:07.623Z,67.20
2022-09-10T00:27:34.718Z,67.30
2022-09-10T00:30:01.143Z,67.40
2022-09-10T00:32:27.574Z,67.90
2022-09-10T00:34:54.006Z,67.20
2022-09-10T00:37:20.440Z,68.10
2022-09-10T00:39:46.875Z,66.80
2022-09-10T00:42:13.341Z,67.40
2022-09-10T00:44:39.767Z,66.80
2022-09-10T00:47:06.211Z,67.40
2022-09-10T00:49:32.655Z,66.80
2022-09-10T00:51:59.094Z,67.30
2022-09-10T00:54:25.510Z,67.20
2022-09-10T00:56:51.945Z,66.80
2022-09-10T00:59:18.375Z,68.60
2022-09-10T01:01:44.865Z,67.30
2022-09-10T01:04:11.309Z,67.30
2022-09-10T01:06:37.761Z,68.00
2022-09-10T01:09:04.195Z,66.80
2022-09-10T01:11:30.643Z,67.60
2022-09-10T01:13:57.076Z,66.40
2022-09-10T01:16:23.656Z,66.70
2022-09-10T01:18:50.142Z,66.50
2022-09-10T01:21:16.593Z,66.40
2022-09-10T01:23:42.995Z,66.70
2022-09-10T01:26:09.444Z,66.60
2022-09-10T01:28:35.867Z,66.60
2022-09-10T01:31:02.286Z,66.90
2022-09-10T01:33:28.701Z,66.60
2022-09-10T01:35:55.159Z,67.20
2022-09-10T01:38:21.609Z,67.10
2022-09-10T01:40:48.057Z,66.80
2022-09-10T01:43:14.483Z,66.40
2022-09-10T01:45:40.930Z,66.80
2022-09-10T01:48:07.353Z,66.40
2022-09-10T01:50:33.774Z,67.10
2022-09-10T01:53:00.184Z,67.10
2022-09-10T01:55:26.613Z,67.30
2022-09-10T01:57:53.060Z,66.60
2022-09-10T02:00:19.496Z,66.70
2022-09-10T02:02:45.928Z,67.10
2022-09-10T02:05:12.348Z,66.70
2022-09-10T02:07:38.790Z,66.80
2022-09-10T02:10:05.222Z,67.20
2022-09-10T02:12:31.656Z,66.60
2022-09-10T02:14:58.122Z,66.90
2022-09-10T02:17:24.554Z,67.40
2022-09-10T02:19:50.974Z,66.40
2022-09-10T02:22:17.408Z,67.50
2022-09-10T02:24:43.823Z,66.80
2022-09-10T02:27:10.252Z,67.30
2022-09-10T02:29:36.693Z,66.60
2022-09-10T02:32:03.137Z,67.30
2022-09-10T02:34:29.559Z,66.60
2022-09-10T02:36:56.017Z,67.10
2022-09-10T02:39:22.431Z,66.70
2022-09-10T02:41:48.866Z,67.10
2022-09-10T02:44:15.280Z,66.50
2022-09-10T02:46:41.709Z,67.10
2022-09-10T02:49:08.153Z,66.80
2022-09-10T02:51:34.588Z,66.90
2022-09-10T02:54:01.036Z,68.30
2022-09-10T02:56:27.571Z,66.80
2022-09-10T02:58:54.028Z,66.50
2022-09-10T03:01:20.531Z,67.00
2022-09-10T03:03:46.982Z,66.00
2022-09-10T03:06:13.421Z,67.10
2022-09-10T03:08:39.948Z,68.70
2022-09-10T03:11:06.593Z,66.80
2022-09-10T03:13:32.988Z,66.70
2022-09-10T03:15:59.461Z,66.50
2022-09-10T03:18:25.953Z,66.60
2022-09-10T03:20:52.414Z,66.70
2022-09-10T03:23:18.854Z,66.80
2022-09-10T03:25:49.513Z,66.60
2022-09-10T03:28:16.307Z,67.00
2022-09-10T03:30:42.751Z,67.10
2022-09-10T03:33:09.179Z,66.70
2022-09-10T03:35:35.585Z,66.90
2022-09-10T03:38:02.027Z,67.60
2022-09-10T03:40:28.420Z,67.90
2022-09-10T03:42:54.842Z,67.70
2022-09-10T03:45:21.319Z,67.80
2022-09-10T03:47:47.768Z,67.90
2022-09-10T03:50:14.204Z,66.90
2022-09-10T03:52:40.650Z,67.30
2022-09-10T03:55:07.061Z,67.50
2022-09-10T03:57:33.668Z,66.80
2022-09-10T04:00:02.252Z,66.80
2022-09-10T04:02:28.781Z,67.00
2022-09-10T04:04:55.196Z,67.30
2022-09-10T04:07:21.607Z,67.30
2022-09-10T04:09:48.063Z,67.10
2022-09-10T04:12:14.497Z,67.10
2022-09-10T04:14:40.920Z,67.20
2022-09-10T04:17:07.418Z,66.80
2022-09-10T04:19:33.860Z,68.60
2022-09-10T04:22:00.312Z,67.10
2022-09-10T04:24:26.745Z,67.50
2022-09-10T04:26:53.201Z,67.30
2022-09-10T04:29:19.633Z,66.90
2022-09-10T04:31:46.119Z,67.70
2022-09-10T04:34:12.607Z,67.00
2022-09-10T04:36:39.020Z,66.80
2022-09-10T04:39:05.410Z,66.90
2022-09-10T04:41:31.848Z,66.70
2022-09-10T04:43:58.284Z,67.30
2022-09-10T04:46:24.715Z,66.80
2022-09-10T04:48:51.111Z,67.50
2022-09-10T04:51:18.275Z,67.70
2022-09-10T04:53:44.875Z,67.00
2022-09-10T04:56:11.361Z,66.90
2022-09-10T04:58:39.123Z,66.80
2022-09-10T05:01:05.991Z,67.10
2022-09-10T05:03:32.501Z,67.30
2022-09-10T05:05:58.936Z,67.20
2022-09-10T05:08:25.376Z,66.90
2022-09-10T05:10:51.774Z,67.00
2022-09-10T05:13:18.202Z,67.20
2022-09-10T05:15:44.607Z,66.80
2022-09-10T05:18:11.093Z,67.70
2022-09-10T05:20:37.499Z,67.20
2022-09-10T05:23:03.928Z,67.50
2022-09-10T05:25:30.363Z,67.20
2022-09-10T05:27:56.785Z,67.20
2022-09-10T05:30:23.202Z,67.30
2022-09-10T05:32:49.632Z,67.70
2022-09-10T05:35:16.031Z,68.10
2022-09-10T05:37:42.463Z,67.30
2022-09-10T05:40:08.872Z,67.00
2022-09-10T05:42:35.363Z,67.30
2022-09-10T05:45:01.798Z,67.40
2022-09-10T05:47:28.234Z,67.50
2022-09-10T05:49:54.662Z,67.00
2022-09-10T05:52:21.099Z,67.30
2022-09-10T05:54:47.504Z,67.30
2022-09-10T05:57:14.013Z,67.20
2022-09-10T05:59:40.443Z,67.40
2022-09-10T06:02:06.959Z,67.20
2022-09-10T06:04:33.468Z,67.50
2022-09-10T06:06:59.905Z,67.60
2022-09-10T06:09:26.297Z,67.60
2022-09-10T06:11:52.737Z,67.20
2022-09-10T06:14:19.152Z,67.10
2022-09-10T06:16:45.696Z,67.40
2022-09-10T06:19:12.161Z,67.40
2022-09-10T06:21:38.600Z,67.30
2022-09-10T06:24:05.035Z,67.60
2022-09-10T06:26:31.472Z,67.70
2022-09-10T06:28:57.900Z,67.70
2022-09-10T06:31:24.318Z,67.80
2022-09-10T06:33:50.731Z,67.10
2022-09-10T06:36:17.149Z,67.10
2022-09-10T06:38:43.546Z,67.10
2022-09-10T06:41:09.977Z,67.40
2022-09-10T06:43:36.401Z,67.30
2022-09-10T06:46:02.879Z,67.50
2022-09-10T06:48:48.079Z,67.70
2022-09-10T06:51:14.695Z,67.60
2022-09-10T06:53:41.093Z,67.30
2022-09-10T06:56:07.528Z,67.50
2022-09-10T06:58:34.124Z,67.50
2022-09-10T07:01:00.598Z,67.50
2022-09-10T07:03:26.998Z,67.60
2022-09-10T07:05:53.434Z,67.60
2022-09-10T07:08:19.854Z,67.40
2022-09-10T07:10:46.259Z,67.70
2022-09-10T07:13:12.653Z,67.50
2022-09-10T07:15:39.168Z,67.40
2022-09-10T07:18:05.592Z,67.50
2022-09-10T07:20:32.003Z,67.70
2022-09-10T07:22:58.413Z,67.50
2022-09-10T07:25:25.202Z,67.80
2022-09-10T07:27:51.636Z,67.50
2022-09-10T07:30:18.077Z,68.00
2022-09-10T07:32:44.505Z,67.80
2022-09-10T07:35:10.975Z,68.20
2022-09-10T07:37:37.400Z,68.10
2022-09-10T07:40:03.863Z,68.00
2022-09-10T07:42:30.304Z,68.40
2022-09-10T07:44:56.706Z,68.00
2022-09-10T07:47:23.183Z,68.00
2022-09-10T07:49:49.601Z,68.20
2022-09-10T07:52:16.031Z,68.40
2022-09-10T07:54:42.453Z,68.00
2022-09-10T07:57:08.899Z,68.20
2022-09-10T07:59:35.331Z,67.80
2022-09-10T08:02:01.869Z,68.10
2022-09-10T08:04:28.311Z,67.70
2022-09-10T08:06:54.718Z,67.80
2022-09-10T08:09:21.098Z,67.60
2022-09-10T08:11:47.540Z,67.70
2022-09-10T08:14:14.009Z,67.90
2022-09-10T08:16:44.288Z,67.80
2022-09-10T08:19:10.994Z,67.80
2022-09-10T08:21:37.387Z,68.20
2022-09-10T08:24:03.831Z,67.80
2022-09-10T08:26:30.257Z,68.30
2022-09-10T08:28:56.668Z,67.90
2022-09-10T08:31:23.152Z,68.70
2022-09-10T08:33:49.601Z,67.90
2022-09-10T08:36:16.034Z,67.70
2022-09-10T08:38:42.456Z,67.90
2022-09-10T08:41:08.877Z,68.50
2022-09-10T08:43:35.277Z,67.80
2022-09-10T08:46:01.723Z,68.80
2022-09-10T08:48:28.171Z,67.90
2022-09-10T08:50:54.581Z,67.70
2022-09-10T08:53:20.987Z,67.70
2022-09-10T08:55:49.002Z,67.70
2022-09-10T08:58:15.546Z,67.60
2022-09-10T09:00:41.964Z,67.70
2022-09-10T09:03:08.412Z,67.80
2022-09-10T09:05:34.871Z,68.60
2022-09-10T09:08:01.392Z,68.00
2022-09-10T09:10:27.828Z,67.90
2022-09-10T09:12:54.236Z,68.10
2022-09-10T09:15:20.680Z,68.50
2022-09-10T09:17:47.082Z,68.60
2022-09-10T09:20:13.572Z,68.00
2022-09-10T09:22:40.214Z,68.40
2022-09-10T09:25:06.655Z,68.20
2022-09-10T09:27:33.070Z,68.00
2022-09-10T09:29:59.457Z,67.90
2022-09-10T09:32:25.870Z,68.20
2022-09-10T09:34:52.326Z,68.00
2022-09-10T09:37:18.832Z,68.00
2022-09-10T09:39:45.278Z,67.90
2022-09-10T09:42:11.732Z,68.00
2022-09-10T09:44:38.359Z,68.00
2022-09-10T09:47:04.812Z,67.90
2022-09-10T09:49:31.209Z,68.00
2022-09-10T09:51:57.638Z,68.00
2022-09-10T09:55:10.273Z,68.80
2022-09-10T09:57:10.402Z,68.70
2022-09-10T09:59:36.838Z,68.20
2022-09-10T10:02:03.301Z,68.10
2022-09-10T10:04:29.769Z,68.00
2022-09-10T10:06:56.239Z,68.70
2022-09-10T10:09:22.698Z,68.30
2022-09-10T10:11:49.113Z,68.40
2022-09-10T10:14:15.503Z,68.40
2022-09-10T10:16:41.933Z,68.30
2022-09-10T10:19:08.329Z,68.40
2022-09-10T10:21:34.797Z,68.20
2022-09-10T10:24:01.195Z,68.40
2022-09-10T10:26:27.612Z,68.90
2022-09-10T10:28:54.063Z,68.20
2022-09-10T10:31:20.544Z,68.50
2022-09-10T10:33:47.004Z,68.40
2022-09-10T10:36:13.408Z,68.30
2022-09-10T10:38:39.952Z,68.30
2022-09-10T10:41:06.442Z,68.50
2022-09-10T10:43:32.898Z,69.00
2022-09-10T10:45:59.417Z,68.90
2022-09-10T10:48:25.885Z,68.70
2022-09-10T10:50:53.022Z,68.30
2022-09-10T10:53:19.629Z,68.50
2022-09-10T10:55:46.075Z,68.30
2022-09-10T10:58:12.464Z,69.10
2022-09-10T11:00:38.870Z,68.90
2022-09-10T11:03:05.294Z,68.60
2022-09-10T11:05:31.738Z,68.70
2022-09-10T11:07:58.183Z,69.40
2022-09-10T11:10:24.716Z,68.40
2022-09-10T11:12:51.120Z,68.70
2022-09-10T11:15:17.555Z,68.60
2022-09-10T11:17:43.980Z,68.70
2022-09-10T11:20:27.994Z,68.70
2022-09-10T11:22:55.171Z,68.60
2022-09-10T11:25:21.632Z,68.80
2022-09-10T11:27:48.078Z,68.30
2022-09-10T11:30:14.508Z,68.50
2022-09-10T11:32:40.913Z,68.20
2022-09-10T11:35:07.387Z,69.10
2022-09-10T11:37:33.815Z,69.50
2022-09-10T11:40:00.275Z,68.70
2022-09-10T11:42:26.754Z,68.70
2022-09-10T11:44:53.186Z,68.00
2022-09-10T11:47:19.641Z,69.20
2022-09-10T11:49:46.030Z,68.80
2022-09-10T11:52:12.472Z,68.70
2022-09-10T11:54:38.926Z,68.90
2022-09-10T11:57:05.428Z,69.00
2022-09-10T11:59:31.928Z,69.30
2022-09-10T12:01:58.359Z,67.50
2022-09-10T12:04:24.776Z,68.70
2022-09-10T12:06:51.186Z,68.70
2022-09-10T12:09:17.610Z,68.50
2022-09-10T12:11:44.044Z,70.00
2022-09-10T12:14:10.457Z,68.80
2022-09-10T12:16:36.886Z,69.50
2022-09-10T12:19:03.305Z,70.40
2022-09-10T12:21:29.738Z,68.70
2022-09-10T12:23:56.149Z,69.20
2022-09-10T12:26:22.619Z,68.70
2022-09-10T12:28:49.060Z,69.00
2022-09-10T12:31:15.539Z,69.20
2022-09-10T12:33:42.045Z,68.80
2022-09-10T12:36:08.504Z,68.60
2022-09-10T12:38:34.915Z,68.70
2022-09-10T12:41:01.346Z,68.70
2022-09-10T12:43:27.725Z,69.10
2022-09-10T12:45:54.181Z,69.00
2022-09-10T12:48:25.097Z,69.80
2022-09-10T12:50:53.305Z,68.60
2022-09-10T12:53:19.724Z,68.90
2022-09-10T12:55:46.131Z,68.90
2022-09-10T12:58:12.551Z,68.50
2022-09-10T13:00:38.972Z,68.30
2022-09-10T13:03:05.385Z,68.50
2022-09-10T13:05:31.788Z,68.80
2022-09-10T13:07:58.227Z,68.90
2022-09-10T13:10:24.648Z,68.90
2022-09-10T13:12:51.086Z,68.80
2022-09-10T13:15:17.489Z,69.00
2022-09-10T13:17:43.906Z,68.90
2022-09-10T13:20:10.308Z,68.80
2022-09-10T13:22:36.715Z,68.90
2022-09-10T13:25:03.188Z,68.70
2022-09-10T13:27:29.618Z,69.10
2022-09-10T13:29:56.039Z,68.70
2022-09-10T13:32:22.455Z,69.60
2022-09-10T13:34:48.835Z,68.90
2022-09-10T13:37:15.258Z,68.70
2022-09-10T13:39:41.682Z,68.80
2022-09-10T13:42:08.120Z,68.70
2022-09-10T13:44:34.521Z,68.80
2022-09-10T13:47:00.942Z,68.70
2022-09-10T13:49:27.355Z,69.50
2022-09-10T13:51:53.779Z,70.20
2022-09-10T13:54:20.248Z,69.40
2022-09-10T13:56:46.715Z,69.20
2022-09-10T13:59:13.111Z,68.90
2022-09-10T14:01:39.525Z,69.00
2022-09-10T14:04:05.931Z,68.90
2022-09-10T14:06:32.338Z,68.80
2022-09-10T14:08:58.739Z,68.90
2022-09-10T14:11:25.221Z,69.00
2022-09-10T14:13:51.670Z,69.00
2022-09-10T14:16:18.115Z,69.00
2022-09-10T14:18:44.502Z,69.00
2022-09-10T14:21:10.937Z,69.00
2022-09-10T14:23:38.497Z,68.90
2022-09-10T14:26:04.952Z,69.80
2022-09-10T14:28:31.374Z,68.90
2022-09-10T14:30:57.898Z,69.30
2022-09-10T14:33:24.351Z,69.00
2022-09-10T14:35:50.772Z,70.50
2022-09-10T14:38:17.164Z,69.30
2022-09-10T14:40:43.578Z,70.00
2022-09-10T14:43:09.975Z,69.10
2022-09-10T14:45:36.419Z,69.00
2022-09-10T14:48:02.834Z,69.40
2022-09-10T14:50:29.266Z,69.80
2022-09-10T14:52:55.678Z,69.40
2022-09-10T14:55:22.103Z,69.70
2022-09-10T14:57:48.523Z,69.60
2022-09-10T15:00:14.954Z,69.20
2022-09-10T15:02:41.369Z,69.60
2022-09-10T15:05:07.823Z,69.40
2022-09-10T15:07:34.322Z,70.00
2022-09-10T15:10:00.737Z,68.60
2022-09-10T15:12:27.173Z,69.20
2022-09-10T15:14:53.605Z,69.60
2022-09-10T15:17:20.050Z,69.10
2022-09-10T15:19:46.454Z,69.00
2022-09-10T15:22:12.882Z,70.00
2022-09-10T15:25:05.592Z,69.80
2022-09-10T15:27:25.710Z,69.30
2022-09-10T15:29:52.151Z,70.30
2022-09-10T15:32:18.559Z,69.80
2022-09-10T15:34:44.972Z,70.20
2022-09-10T15:37:11.390Z,69.30
2022-09-10T15:39:37.939Z,69.40
2022-09-10T15:42:04.418Z,69.60
2022-09-10T15:44:30.819Z,69.30
2022-09-10T15:46:57.235Z,69.60
2022-09-10T15:49:23.654Z,69.20
2022-09-10T15:51:50.077Z,70.10
2022-09-10T15:54:16.689Z,69.30
2022-09-10T15:56:43.127Z,70.30
2022-09-10T15:59:09.557Z,69.40
2022-09-10T16:01:36.203Z,69.60
2022-09-10T16:04:04.640Z,69.20
2022-09-10T16:06:31.049Z,69.30
2022-09-10T16:08:57.515Z,69.20
2022-09-10T16:11:23.919Z,69.40
2022-09-10T16:13:50.300Z,69.10
2022-09-10T16:16:16.739Z,69.30
2022-09-10T16:18:43.191Z,69.20
2022-09-10T16:21:09.634Z,69.10
2022-09-10T16:23:36.032Z,69.10
2022-09-10T16:26:02.467Z,69.10
2022-09-10T16:28:28.863Z,69.30
2022-09-10T16:30:55.309Z,69.40
2022-09-10T16:33:21.726Z,69.40
2022-09-10T16:35:48.149Z,69.70
2022-09-10T16:38:14.574Z,69.20
2022-09-10T16:40:40.976Z,69.40
2022-09-10T16:43:07.452Z,69.50
2022-09-10T16:45:33.876Z,70.20
2022-09-10T16:48:04.126Z,69.70
2022-09-10T16:50:30.924Z,69.50
2022-09-10T16:52:57.333Z,69.20
2022-09-10T16:55:23.759Z,69.10
2022-09-10T16:57:50.147Z,69.30
2022-09-10T17:00:16.563Z,69.50
2022-09-10T17:02:43.041Z,69.50
2022-09-10T17:05:09.506Z,69.30
2022-09-10T17:07:35.919Z,69.80
2022-09-10T17:10:02.332Z,69.50
2022-09-10T17:12:28.741Z,69.50
2022-09-10T17:14:55.169Z,69.30
2022-09-10T17:17:21.599Z,69.50
2022-09-10T17:19:47.984Z,69.70
2022-09-10T17:22:14.420Z,70.60
2022-09-10T17:24:41.894Z,69.90
2022-09-10T17:27:08.315Z,70.10
2022-09-10T17:29:34.735Z,69.40
2022-09-10T17:32:01.172Z,69.50
2022-09-10T17:34:27.594Z,69.40
2022-09-10T17:36:54.020Z,69.40
2022-09-10T17:39:20.433Z,68.50
2022-09-10T17:41:46.859Z,69.50
2022-09-10T17:44:13.265Z,69.60
2022-09-10T17:46:39.731Z,70.40
2022-09-10T17:49:06.175Z,69.60
2022-09-10T17:51:32.587Z,69.40
2022-09-10T17:53:58.980Z,69.50
2022-09-10T17:56:25.419Z,69.30
2022-09-10T17:58:51.827Z,69.20
2022-09-10T18:01:22.503Z,70.20
2022-09-10T18:03:49.645Z,69.70
2022-09-10T18:06:16.056Z,69.60
2022-09-10T18:08:42.482Z,70.90
2022-09-10T18:11:08.916Z,69.80
2022-09-10T18:13:35.367Z,69.90
2022-09-10T18:16:01.829Z,69.20
2022-09-10T18:18:28.295Z,69.40
2022-09-10T18:20:54.713Z,69.20
2022-09-10T18:23:21.101Z,69.70
2022-09-10T18:25:49.908Z,70.00
2022-09-10T18:28:16.553Z,69.60
2022-09-10T18:30:42.946Z,69.30
2022-09-10T18:33:09.376Z,70.20
2022-09-10T18:35:35.788Z,69.90
2022-09-10T18:38:02.208Z,69.80
2022-09-10T18:40:28.626Z,69.50
2022-09-10T18:42:55.055Z,69.80
2022-09-10T18:45:21.495Z,70.00
2022-09-10T18:47:47.907Z,69.50
2022-09-10T18:50:14.325Z,69.40
2022-09-10T18:52:40.745Z,69.40
2022-09-10T18:55:07.167Z,70.00
2022-09-10T18:57:33.562Z,69.50
2022-09-10T18:59:59.973Z,69.70
2022-09-10T19:02:26.513Z,69.30
2022-09-10T19:05:11.578Z,69.90
2022-09-10T19:07:38.564Z,69.30
2022-09-10T19:10:05.033Z,69.50
2022-09-10T19:12:31.426Z,69.70
2022-09-10T19:14:57.837Z,69.50
2022-09-10T19:17:24.241Z,69.50
2022-09-10T19:19:50.650Z,69.70
2022-09-10T19:22:17.036Z,69.40
2022-09-10T19:24:54.654Z,69.40
2022-09-10T19:27:21.927Z,69.40
2022-09-10T19:29:48.334Z,69.40
2022-09-10T19:32:14.733Z,69.60
2022-09-10T19:34:41.158Z,69.40
2022-09-10T19:37:07.538Z,69.60
2022-09-10T19:39:33.985Z,69.40
2022-09-10T19:42:00.411Z,69.40
2022-09-10T19:44:26.811Z,69.40
2022-09-10T19:46:53.209Z,69.80
2022-09-10T19:49:19.629Z,69.60
2022-09-10T19:51:46.063Z,69.60
2022-09-10T19:54:12.653Z,69.50
2022-09-10T19:56:39.046Z,69.40
2022-09-10T19:59:05.459Z,69.40
2022-09-10T20:01:31.937Z,69.40
2022-09-10T20:03:58.364Z,69.40
2022-09-10T20:06:24.783Z,69.60
2022-09-10T20:08:51.164Z,69.60
2022-09-10T20:11:17.585Z,69.40
2022-09-10T20:13:43.979Z,69.40
2022-09-10T20:16:10.453Z,69.70
2022-09-10T20:18:36.984Z,69.40
2022-09-10T20:21:03.473Z,70.10
2022-09-10T20:23:29.866Z,69.40
2022-09-10T20:25:56.307Z,69.70
2022-09-10T20:28:22.706Z,69.60
2022-09-10T20:30:49.136Z,69.60
2022-09-10T20:33:15.551Z,69.40
2022-09-10T20:35:41.968Z,69.10
2022-09-10T20:38:08.388Z,69.60
2022-09-10T20:40:34.816Z,69.40
2022-09-10T20:43:01.216Z,69.60
2022-09-10T20:45:27.611Z,69.60
2022-09-10T20:47:54.017Z,69.80
2022-09-10T20:50:20.491Z,69.70
2022-09-10T20:52:46.900Z,69.40
2022-09-10T20:55:13.322Z,69.60
2022-09-10T20:57:39.728Z,69.80
2022-09-10T21:00:06.355Z,69.80
2022-09-10T21:02:32.958Z,69.50
2022-09-10T21:04:59.474Z,70.40
2022-09-10T21:07:25.863Z,69.60
2022-09-10T21:09:52.253Z,69.50
2022-09-10T21:12:18.660Z,69.50
2022-09-10T21:14:45.081Z,69.80
2022-09-10T21:17:11.480Z,69.50
2022-09-10T21:19:37.914Z,69.70
2022-09-10T21:22:04.311Z,69.60
2022-09-10T21:24:30.730Z,69.90
2022-09-10T21:26:57.141Z,69.80
2022-09-10T21:29:23.589Z,70.00
2022-09-10T21:31:50.052Z,70.30
2022-09-10T21:34:16.469Z,70.80
2022-09-10T21:36:42.867Z,70.90
2022-09-10T21:39:09.302Z,70.30
2022-09-10T21:41:35.707Z,70.00
2022-09-10T21:44:02.121Z,70.70
2022-09-10T21:46:28.676Z,69.90
2022-09-10T21:48:55.358Z,69.90
2022-09-10T21:51:21.798Z,69.80
2022-09-10T21:53:48.213Z,69.60
2022-09-10T21:56:16.703Z,70.10
2022-09-10T21:58:43.128Z,70.30
2022-09-10T22:01:09.564Z,69.70
2022-09-10T22:03:35.994Z,70.40
2022-09-10T22:06:02.427Z,70.30
2022-09-10T22:08:28.835Z,70.20
2022-09-10T22:10:55.280Z,71.90
2022-09-10T22:13:21.680Z,69.90
2022-09-10T22:15:48.140Z,69.90
2022-09-10T22:18:14.590Z,69.80
2022-09-10T22:20:41.025Z,70.80
2022-09-10T22:23:07.457Z,70.70
2022-09-10T22:25:33.890Z,70.20
2022-09-10T22:28:00.318Z,70.10
2022-09-10T22:30:26.758Z,70.10
2022-09-10T22:32:53.169Z,70.00
2022-09-10T22:35:19.599Z,70.30
2022-09-10T22:37:46.000Z,70.00
2022-09-10T22:40:12.453Z,70.20
2022-09-10T22:42:38.898Z,69.80
2022-09-10T22:45:05.333Z,70.20
2022-09-10T22:47:31.741Z,69.80
2022-09-10T22:49:58.319Z,70.20
2022-09-10T22:52:24.734Z,69.90
2022-09-10T22:54:51.144Z,70.10
2022-09-10T22:57:17.552Z,70.10
2022-09-10T22:59:43.966Z,70.10
2022-09-10T23:02:10.388Z,70.70
2022-09-10T23:04:36.823Z,70.10
2022-09-10T23:07:03.217Z,69.90
2022-09-10T23:09:29.633Z,71.30
2022-09-10T23:11:56.049Z,70.50
2022-09-10T23:14:22.452Z,69.80
2022-09-10T23:16:48.849Z,69.70
2022-09-10T23:19:15.254Z,70.20
2022-09-10T23:21:41.659Z,70.20
2022-09-10T23:24:08.111Z,71.40
2022-09-10T23:26:34.526Z,69.80
2022-09-10T23:29:00.929Z,70.00
2022-09-10T23:31:27.384Z,70.10
2022-09-10T23:33:53.926Z,70.60
2022-09-10T23:36:20.348Z,70.00
2022-09-10T23:38:46.745Z,70.40
2022-09-10T23:41:13.155Z,70.60
2022-09-10T23:43:39.641Z,69.70
2022-09-10T23:46:06.117Z,69.70
2022-09-10T23:48:32.539Z,70.10
2022-09-10T23:50:58.967Z,68.90
2022-09-10T23:53:25.382Z,70.00
2022-09-10T23:55:51.822Z,70.40
2022-09-10T23:58:18.225Z,70.20
